This is the latest recevied weather packets stored in our database for station/object K7CTM. If no packets are shown the sender has not sent any weather packets the latest 10 day(s).
| Time | Temp. | Humidity | Pressure | Rain* | Wind** | Luminosity | Snow |
|---|---|---|---|---|---|---|---|
| 1778088343 | 10.56° C | 36% | 1026.1 hPa | 0 mm | - | 797 W/m² | - |
| 1778088039 | 10° C | 36% | 1026.2 hPa | 0 mm | - | 772 W/m² | - |
| 1778087737 | 9.44° C | 36% | 1026.3 hPa | 0 mm | - | 759 W/m² | - |
| 1778087435 | 8.89° C | 36% | 1026.3 hPa | 0 mm | - | 752 W/m² | - |
| 1778087132 | 9.44° C | 37% | 1026.4 hPa | 0 mm | - | 742 W/m² | - |
| 1778086830 | 8.89° C | 37% | 1026.4 hPa | 0 mm | - | 735 W/m² | - |
| 1778086528 | 8.89° C | 38% | 1026.6 hPa | 0 mm | - | 723 W/m² | - |
| 1778086223 | 8.89° C | 38% | 1026.5 hPa | 0 mm | - | 713 W/m² | - |
| 1778085921 | 8.33° C | 38% | 1026.6 hPa | 0 mm | - | 701 W/m² | - |
| 1778085618 | 8.33° C | 39% | 1027 hPa | 0 mm | - | 688 W/m² | - |
| 1778085314 | 8.33° C | 39% | 1027.1 hPa | 0 mm | - | 688 W/m² | - |
| 1778085010 | 7.78° C | 38% | 1027.1 hPa | 0 mm | - | 672 W/m² | - |
| 1778084706 | 8.33° C | 40% | 1027.1 hPa | 0 mm | - | 661 W/m² | - |
| 1778084403 | 7.78° C | 46% | 1027.3 hPa | 0 mm | - | 647 W/m² | - |
| 1778084101 | 7.78° C | 44% | 1027.3 hPa | 0 mm | - | 634 W/m² | - |
| 1778083798 | 7.22° C | 45% | 1027.4 hPa | 0 mm | - | 621 W/m² | - |
| 1778083495 | 7.22° C | 46% | 1027.5 hPa | 0 mm | - | 606 W/m² | - |
| 1778083192 | 7.22° C | 46% | 1027.7 hPa | 0 mm | - | 593 W/m² | - |
| 1778082890 | 7.22° C | 48% | 1027.5 hPa | 0 mm | - | 577 W/m² | - |
| 1778081777 | 5.56° C | 53% | 1027.8 hPa | 0 mm | - | 521 W/m² | - |
| 1778081474 | 5.56° C | 53% | 1027.7 hPa | 0 mm | - | 510 W/m² | - |
| 1778081171 | 4.44° C | 57% | 1028.1 hPa | 0 mm | - | 495 W/m² | - |
| 1778080869 | 5° C | 55% | 1027.9 hPa | 0 mm | - | 480 W/m² | - |
| 1778080567 | 3.89° C | 57% | 1028 hPa | 0 mm | - | 463 W/m² | - |
| 1778080264 | 3.89° C | 58% | 1028.2 hPa | 0 mm | - | 452 W/m² | - |
* Rain latest hour (hover to see other rain measurements)
** Current wind speed in m/s (hover to see current wind gust speed)